Time;durP1;ratioP1;P1;durP2;ratioP2;P2;SDS_P1;SDS_P2;PMS_P1;PMS_P2;Temp;Humidity;BMP_temperature;BMP_pressure;BME280_temperature;BME280_humidity;BME280_pressure;Samples;Min_cycle;Max_cycle;Signal;HPM_P1;HPM_P2
2024/04/18 00:01:54;;;;;;;3.45;1.65;;;;;;;0.55;100.00;101685.88;5564069;25;20432;-80
2024/04/18 00:04:20;;;;;;;2.28;1.58;;;;;;;0.59;100.00;101684.88;5531055;25;20334;-79
2024/04/18 00:06:45;;;;;;;2.15;1.38;;;;;;;0.64;100.00;101690.81;5564185;25;19996;-79
2024/04/18 00:09:10;;;;;;;3.10;1.60;;;;;;;0.68;100.00;101696.78;5563927;25;20007;-79
2024/04/18 00:11:36;;;;;;;2.83;1.70;;;;;;;0.72;100.00;101700.16;5564039;25;20058;-78
2024/04/18 00:14:01;;;;;;;2.22;1.70;;;;;;;0.75;100.00;101698.28;5530370;25;20437;-79
2024/04/18 00:16:27;;;;;;;4.13;1.90;;;;;;;0.80;100.00;101703.38;5530767;25;19993;-78
2024/04/18 00:18:52;;;;;;;3.20;1.95;;;;;;;0.85;100.00;101701.41;5563596;25;20301;-78
2024/04/18 00:21:17;;;;;;;5.43;1.88;;;;;;;0.88;100.00;101699.56;5564065;25;20409;-79
2024/04/18 00:23:43;;;;;;;2.13;1.85;;;;;;;0.93;100.00;101694.16;5563495;25;20001;-78
2024/04/18 00:26:08;;;;;;;4.53;2.20;;;;;;;0.99;100.00;101693.91;5563234;25;19997;-79
2024/04/18 00:28:34;;;;;;;4.50;2.25;;;;;;;1.04;100.00;101696.38;5563594;25;20285;-78
2024/04/18 00:30:59;;;;;;;6.57;1.90;;;;;;;1.03;100.00;101698.16;5563118;25;20004;-79
2024/04/18 00:33:24;;;;;;;3.38;1.65;;;;;;;0.99;100.00;101704.41;5563304;25;20007;-79
2024/04/18 00:35:50;;;;;;;3.20;1.75;;;;;;;0.96;100.00;101708.91;5530038;25;20012;-78
2024/04/18 00:38:16;;;;;;;4.07;2.03;;;;;;;0.92;100.00;101705.53;5563486;25;19997;-79
2024/04/18 00:40:44;;;;;;;1.92;1.70;;;;;;;0.88;100.00;101710.03;5530019;25;20425;-78
2024/04/18 00:43:10;;;;;;;2.88;1.98;;;;;;;0.84;100.00;101713.69;5562506;25;19992;-79
2024/04/18 00:45:36;;;;;;;2.92;1.70;;;;;;;0.77;100.00;101711.34;5562892;25;20003;-79
2024/04/18 00:48:02;;;;;;;3.67;1.80;;;;;;;0.72;100.00;101713.25;5562886;25;20131;-79
2024/04/18 00:50:28;;;;;;;2.95;1.90;;;;;;;0.63;100.00;101722.31;5529563;25;20406;-79
2024/04/18 00:52:53;;;;;;;5.70;1.67;;;;;;;0.54;100.00;101720.84;5563299;25;19997;-79
2024/04/18 00:55:19;;;;;;;2.20;2.00;;;;;;;0.48;100.00;101721.06;5562363;25;19996;-79
2024/04/18 00:57:44;;;;;;;1.85;1.60;;;;;;;0.41;100.00;101719.56;5529884;25;20305;-79
2024/04/18 01:00:10;;;;;;;2.83;1.70;;;;;;;0.34;100.00;101726.75;5562798;25;20476;-80
2024/04/18 01:02:36;;;;;;;2.05;1.60;;;;;;;0.28;100.00;101733.03;5562610;25;19993;-79
2024/04/18 01:05:02;;;;;;;2.45;1.83;;;;;;;0.24;100.00;101739.31;5529702;25;19999;-80
2024/04/18 01:07:28;;;;;;;2.83;2.00;;;;;;;0.21;100.00;101735.91;5562464;25;19993;-80
2024/04/18 01:09:53;;;;;;;3.83;1.75;;;;;;;0.20;100.00;101742.09;5531183;25;20450;-80
2024/04/18 01:12:19;;;;;;;3.78;1.70;;;;;;;0.20;100.00;101737.69;5533350;25;20003;-80
2024/04/18 01:14:44;;;;;;;2.35;1.90;;;;;;;0.20;100.00;101742.09;5565976;25;20003;-80
2024/04/18 01:17:10;;;;;;;2.90;1.95;;;;;;;0.17;100.00;101743.88;5566065;25;20064;-80
2024/04/18 01:19:36;;;;;;;2.40;1.85;;;;;;;0.16;100.00;101744.81;5566853;25;20007;-80
2024/04/18 01:22:01;;;;;;;2.30;1.67;;;;;;;0.16;100.00;101746.53;5566111;25;20441;-79
2024/04/18 01:24:27;;;;;;;5.40;2.45;;;;;;;0.13;100.00;101746.66;5565859;25;19993;-79
2024/04/18 01:26:52;;;;;;;3.90;2.10;;;;;;;0.07;100.00;101747.69;5533017;25;20293;-80
2024/04/18 01:29:18;;;;;;;2.50;1.95;;;;;;;0.07;100.00;101754.69;5565844;25;19997;-81
2024/04/18 01:31:43;;;;;;;2.63;2.03;;;;;;;0.08;100.00;101761.66;5566555;25;19992;-79
2024/04/18 01:34:08;;;;;;;5.47;2.33;;;;;;;0.08;100.00;101762.50;5533437;25;20485;-79
2024/04/18 01:36:34;;;;;;;2.90;2.22;;;;;;;0.10;100.00;101763.28;5565876;25;19996;-80
2024/04/18 01:38:59;;;;;;;3.10;2.15;;;;;;;0.06;100.00;101766.94;5502088;25;19997;-80
2024/04/18 01:41:24;;;;;;;1.98;1.80;;;;;;;0.00;100.00;101769.75;5565523;25;20045;-79
2024/04/18 01:43:50;;;;;;;3.20;2.22;;;;;;;-0.07;100.00;101768.22;5565886;25;20008;-79
2024/04/18 01:46:15;;;;;;;6.85;2.33;;;;;;;-0.12;100.00;101771.00;5532943;25;20413;-80
2024/04/18 01:48:41;;;;;;;4.53;2.42;;;;;;;-0.12;100.00;101775.34;5533516;25;20008;-79
2024/04/18 01:51:06;;;;;;;5.75;2.53;;;;;;;-0.12;100.00;101775.34;5532749;25;19988;-79
2024/04/18 01:53:32;;;;;;;2.97;2.00;;;;;;;-0.16;100.00;101777.22;5565962;25;20092;-80
2024/04/18 01:55:57;;;;;;;2.95;1.90;;;;;;;-0.17;100.00;101782.50;5566108;25;20142;-80
2024/04/18 01:58:22;;;;;;;3.30;2.00;;;;;;;-0.24;100.00;101784.41;5565906;25;20015;-79
2024/04/18 02:00:48;;;;;;;5.38;2.22;;;;;;;-0.31;100.00;101785.50;5533039;25;20353;-79
2024/04/18 02:03:13;;;;;;;3.97;2.10;;;;;;;-0.37;100.00;101784.78;5565882;25;20425;-80
2024/04/18 02:05:39;;;;;;;2.42;1.98;;;;;;;-0.40;100.00;101790.13;5565775;25;20459;-79
2024/04/18 02:08:04;;;;;;;2.47;1.92;;;;;;;-0.44;100.00;101783.25;5533397;25;19996;-79
2024/04/18 02:10:30;;;;;;;3.17;2.10;;;;;;;-0.48;100.00;101786.00;5565665;25;20072;-79
2024/04/18 02:12:56;;;;;;;3.47;1.85;;;;;;;-0.52;100.00;101787.00;5532628;25;20437;-80
2024/04/18 02:15:23;;;;;;;2.33;2.00;;;;;;;-0.54;100.00;101787.03;5532528;25;20085;-81
2024/04/18 02:17:48;;;;;;;2.92;2.03;;;;;;;-0.56;100.00;101786.25;5565607;25;20496;-80
2024/04/18 02:20:14;;;;;;;3.50;2.03;;;;;;;-0.60;100.00;101785.47;5565103;25;20032;-79
2024/04/18 02:22:39;;;;;;;3.63;1.80;;;;;;;-0.63;100.00;101789.94;5564504;25;20361;-79
2024/04/18 02:25:09;;;;;;;1.90;1.70;;;;;;;-0.67;100.00;101789.16;5532671;25;20409;-79
2024/04/18 02:27:35;;;;;;;3.85;2.00;;;;;;;-0.65;100.00;101797.81;5565141;25;19997;-80
2024/04/18 02:30:03;;;;;;;4.07;2.40;;;;;;;-0.68;100.00;101803.13;5532282;25;19993;-80
2024/04/18 02:32:29;;;;;;;2.92;2.03;;;;;;;-0.69;100.00;101804.03;5564993;25;20010;-80
2024/04/18 02:34:54;;;;;;;2.17;1.88;;;;;;;-0.71;100.00;101805.84;5565199;25;20001;-80
2024/04/18 02:37:20;;;;;;;2.05;1.77;;;;;;;-0.73;100.00;101811.09;5532121;25;20000;-79
2024/04/18 02:39:45;;;;;;;3.05;2.10;;;;;;;-0.76;100.00;101808.56;5565494;25;20072;-79
2024/04/18 02:42:10;;;;;;;2.88;2.00;;;;;;;-0.76;100.00;101815.53;5565915;25;20281;-78
2024/04/18 02:44:36;;;;;;;3.35;1.90;;;;;;;-0.79;100.00;101816.50;5532121;25;19993;-79
2024/04/18 02:47:01;;;;;;;2.63;1.92;;;;;;;-0.78;100.00;101818.19;5501401;25;20361;-79
2024/04/18 02:49:26;;;;;;;2.05;1.60;;;;;;;-0.76;100.00;101821.66;5564489;25;20389;-80
2024/04/18 02:51:52;;;;;;;2.72;2.22;;;;;;;-0.74;100.00;101830.28;5564477;25;20008;-80
2024/04/18 02:54:17;;;;;;;2.42;2.08;;;;;;;-0.71;100.00;101838.03;5564596;25;20004;-79
2024/04/18 02:56:42;;;;;;;3.97;2.08;;;;;;;-0.72;100.00;101843.31;5564481;25;20037;-80
2024/04/18 02:59:11;;;;;;;4.00;2.08;;;;;;;-0.68;100.00;101839.72;5564859;25;20011;-79
2024/04/18 03:01:36;;;;;;;2.55;2.20;;;;;;;-0.67;100.00;101840.56;5564650;25;20008;-80
2024/04/18 03:04:02;;;;;;;3.75;1.90;;;;;;;-0.62;100.00;101852.63;5565147;25;20001;-79
2024/04/18 03:06:27;;;;;;;2.45;1.88;;;;;;;-0.59;100.00;101849.06;5564542;25;19993;-81
2024/04/18 03:08:52;;;;;;;2.08;1.63;;;;;;;-0.63;100.00;101852.66;5564590;25;20004;-80
2024/04/18 03:11:18;;;;;;;2.95;2.08;;;;;;;-0.68;100.00;101847.56;5564676;25;20000;-79
2024/04/18 03:13:43;;;;;;;2.25;1.90;;;;;;;-0.75;100.00;101849.50;5564381;25;20004;-79
2024/04/18 03:16:08;;;;;;;3.20;2.17;;;;;;;-0.79;100.00;101855.72;5564543;25;20007;-79
2024/04/18 03:18:34;;;;;;;3.17;1.67;;;;;;;-0.81;100.00;101854.88;5564397;25;19996;-79
2024/04/18 03:20:59;;;;;;;2.45;1.73;;;;;;;-0.84;100.00;101852.34;5564731;25;20301;-79
2024/04/18 03:23:24;;;;;;;3.00;1.90;;;;;;;-0.87;100.00;101849.81;5564357;25;20325;-79
2024/04/18 03:25:50;;;;;;;4.18;1.70;;;;;;;-0.90;100.00;101860.34;5564501;25;20326;-79
2024/04/18 03:28:15;;;;;;;3.13;2.10;;;;;;;-0.89;100.00;101859.47;5531434;25;20001;-79
2024/04/18 03:30:40;;;;;;;2.55;1.95;;;;;;;-0.85;100.00;101857.59;5564105;25;20003;-79
2024/04/18 03:33:06;;;;;;;3.95;1.90;;;;;;;-0.86;100.00;101859.38;5531335;25;20004;-79
2024/04/18 03:35:31;;;;;;;1.80;1.70;;;;;;;-0.86;100.00;101866.38;5564541;25;19996;-82
2024/04/18 03:37:57;;;;;;;3.08;2.17;;;;;;;-0.87;100.00;101864.66;5564453;25;20460;-79
2024/04/18 03:40:24;;;;;;;1.63;1.52;;;;;;;-0.89;100.00;101865.53;5564483;25;19992;-79
2024/04/18 03:42:49;;;;;;;1.95;1.75;;;;;;;-0.91;100.00;101866.47;5564340;25;19997;-80
2024/04/18 03:45:14;;;;;;;2.15;1.85;;;;;;;-0.91;100.00;101867.34;5564472;25;20008;-79
2024/04/18 03:47:40;;;;;;;2.63;1.95;;;;;;;-0.92;100.00;101875.22;5563893;25;19996;-79
2024/04/18 03:50:05;;;;;;;2.58;2.38;;;;;;;-0.95;100.00;101875.28;5564414;25;19997;-79
2024/04/18 03:52:31;;;;;;;2.65;1.85;;;;;;;-0.98;100.00;101873.63;5564054;25;20004;-79
2024/04/18 03:54:56;;;;;;;4.25;2.30;;;;;;;-0.98;100.00;101880.59;5563896;25;19992;-79
2024/04/18 03:57:21;;;;;;;2.20;1.70;;;;;;;-1.02;100.00;101885.03;5564097;25;20447;-79
2024/04/18 03:59:46;;;;;;;4.03;2.33;;;;;;;-0.99;100.00;101890.19;5564643;25;20002;-80
2024/04/18 04:02:12;;;;;;;4.55;2.13;;;;;;;-0.97;100.00;101897.97;5563972;25;19997;-80
2024/04/18 04:04:37;;;;;;;2.88;1.70;;;;;;;-0.95;100.00;101896.19;5563935;25;20000;-80
2024/04/18 04:07:03;;;;;;;4.90;2.00;;;;;;;-0.90;100.00;101896.94;5564492;25;19993;-79
2024/04/18 04:09:28;;;;;;;2.88;2.00;;;;;;;-0.91;100.00;101896.09;5531082;25;20056;-80
2024/04/18 04:11:53;;;;;;;4.20;2.38;;;;;;;-0.91;100.00;101901.31;5564069;25;20409;-80
2024/04/18 04:14:19;;;;;;;4.82;2.63;;;;;;;-0.93;100.00;101905.69;5563879;25;20429;-80
2024/04/18 04:16:44;;;;;;;6.13;2.45;;;;;;;-0.94;100.00;101914.44;5531151;25;20431;-79
2024/04/18 04:19:09;;;;;;;4.35;2.50;;;;;;;-0.88;100.00;101921.28;5500274;25;20000;-80
2024/04/18 04:21:35;;;;;;;3.45;2.60;;;;;;;-0.74;100.00;101921.78;5530866;25;20003;-80
2024/04/18 04:24:00;;;;;;;4.70;2.20;;;;;;;-0.63;100.00;101910.19;5564057;25;20480;-80
2024/04/18 04:26:33;;;;;;;4.72;2.40;;;;;;;-0.61;100.00;101913.59;5563770;25;20008;-79
2024/04/18 04:28:58;;;;;;;4.68;2.30;;;;;;;-0.62;100.00;101919.75;5563773;25;20057;-80
2024/04/18 04:31:23;;;;;;;4.15;2.60;;;;;;;-0.62;100.00;101920.59;5530734;25;20004;-79
2024/04/18 04:33:49;;;;;;;4.07;2.33;;;;;;;-0.56;100.00;101925.66;5530291;25;19997;-79
2024/04/18 04:36:14;;;;;;;3.80;2.20;;;;;;;-0.47;100.00;101923.72;5530958;25;19992;-78
2024/04/18 04:38:39;;;;;;;3.78;2.53;;;;;;;-0.38;100.00;101931.28;5530773;25;19993;-79
2024/04/18 04:41:05;;;;;;;4.30;2.53;;;;;;;-0.30;100.00;101937.19;5563374;25;20012;-79
2024/04/18 04:43:30;;;;;;;4.35;2.30;;;;;;;-0.22;100.00;101942.22;5562853;25;20420;-79
2024/04/18 04:45:56;;;;;;;6.95;2.67;;;;;;;-0.18;100.00;101941.19;5563357;25;20064;-79
2024/04/18 04:48:21;;;;;;;3.53;2.70;;;;;;;-0.20;100.00;101936.00;5530466;25;20004;-79
2024/04/18 04:50:58;;;;;;;2.42;2.17;;;;;;;-0.25;100.00;101945.75;5563768;25;20004;-81
2024/04/18 04:53:24;;;;;;;5.85;2.67;;;;;;;-0.30;100.00;101949.38;5533577;25;20514;-79
2024/04/18 04:55:49;;;;;;;2.85;2.53;;;;;;;-0.28;100.00;101948.47;5577411;25;19992;-80
2024/04/18 04:58:15;;;;;;;4.85;2.53;;;;;;;-0.20;100.00;101958.69;5550759;25;20003;-79
2024/04/18 05:00:40;;;;;;;4.82;2.80;;;;;;;-0.09;100.00;101963.63;5551917;25;20026;-80
2024/04/18 05:03:06;;;;;;;7.95;3.60;;;;;;;0.06;100.00;101962.34;5585323;25;20066;-80
2024/04/18 05:05:31;;;;;;;5.90;3.40;;;;;;;0.25;100.00;101963.53;5584120;25;19996;-78
2024/04/18 05:07:56;;;;;;;8.85;3.45;;;;;;;0.49;100.00;101968.94;5550762;25;19993;-79
2024/04/18 05:10:22;;;;;;;8.77;3.60;;;;;;;0.79;100.00;101974.13;5569905;25;20549;-79
2024/04/18 05:12:48;;;;;;;6.35;3.42;;;;;;;1.15;100.00;101982.59;5564673;25;19997;-80
2024/04/18 05:15:14;;;;;;;10.82;3.45;;;;;;;1.52;100.00;101989.25;5532409;25;20420;-81
2024/04/18 05:17:39;;;;;;;8.57;3.58;;;;;;;1.83;100.00;101982.06;5538530;25;20004;-81
2024/04/18 05:20:05;;;;;;;7.22;3.75;;;;;;;2.04;100.00;101994.41;5530929;25;20009;-80
2024/04/18 05:22:30;;;;;;;8.43;3.47;;;;;;;2.15;100.00;101999.28;5563771;25;20068;-80
2024/04/18 05:24:56;;;;;;;7.72;3.17;;;;;;;2.18;100.00;101999.16;5562866;25;19992;-80
2024/04/18 05:27:21;;;;;;;7.00;3.38;;;;;;;2.21;100.00;102009.56;5562701;25;20064;-80
2024/04/18 05:32:31;;;;;;;7.72;3.08;;;;;;;2.38;100.00;102014.16;5563965;25;20004;-80
2024/04/18 05:34:56;;;;;;;10.65;3.38;;;;;;;2.44;100.00;102016.56;5529135;25;19993;-80
2024/04/18 05:37:22;;;;;;;8.50;3.00;;;;;;;2.52;100.00;102010.16;5562278;25;20000;-80
2024/04/18 05:39:47;;;;;;;8.55;3.13;;;;;;;2.49;100.00;102019.00;5530019;25;19993;-80
2024/04/18 05:42:12;;;;;;;5.50;3.15;;;;;;;2.46;100.00;102020.00;5528793;25;20289;-79
2024/04/18 05:44:41;;;;;;;9.68;3.75;;;;;;;2.42;100.00;102023.66;5561944;25;20459;-81
2024/04/18 05:47:07;;;;;;;7.10;2.83;;;;;;;2.48;100.00;102030.47;5529261;25;20096;-81
2024/04/18 05:49:32;;;;;;;6.07;3.50;;;;;;;2.60;100.00;102023.88;5562156;25;20351;-80
2024/04/18 05:51:58;;;;;;;6.75;3.05;;;;;;;2.80;100.00;102023.94;5562057;25;20004;-80
2024/04/18 05:54:23;;;;;;;6.35;3.63;;;;;;;3.11;100.00;102037.69;5562471;25;19996;-80
2024/04/18 05:56:49;;;;;;;10.48;3.55;;;;;;;3.42;100.00;102045.19;5532239;25;20000;-80
2024/04/18 05:59:14;;;;;;;7.40;3.17;;;;;;;3.68;100.00;102045.84;5532673;25;20068;-80
2024/04/18 06:01:39;;;;;;;9.32;2.95;;;;;;;3.83;100.00;102054.88;5565621;25;20056;-80
2024/04/18 06:04:05;;;;;;;4.60;2.33;;;;;;;3.96;100.00;102065.75;5565491;25;19993;-81
2024/04/18 06:06:31;;;;;;;5.57;2.30;;;;;;;4.05;100.00;102063.56;5565796;25;20001;-81
2024/04/18 06:08:56;;;;;;;5.82;2.20;;;;;;;4.11;100.00;102059.81;5565171;25;19999;-81
2024/04/18 06:11:42;;;;;;;3.97;1.95;;;;;;;4.21;100.00;102071.66;5565782;25;20004;-77
2024/04/18 06:14:08;;;;;;;2.92;1.73;;;;;;;4.34;100.00;102071.09;5566449;25;19992;-80
2024/04/18 06:16:35;;;;;;;7.57;2.17;;;;;;;4.49;100.00;102070.41;5567025;25;20441;-78
2024/04/18 06:19:01;;;;;;;4.20;1.95;;;;;;;4.66;100.00;102076.69;5565910;25;19997;-78
2024/04/18 06:21:26;;;;;;;4.57;1.80;;;;;;;4.73;100.00;102072.84;5532198;25;19997;-79
2024/04/18 06:23:51;;;;;;;2.45;1.50;;;;;;;4.83;100.00;102076.78;5565079;25;19996;-80
2024/04/18 06:26:17;;;;;;;8.25;1.95;;;;;;;4.91;100.00;102074.66;5532724;25;20062;-80
2024/04/18 06:28:42;;;;;;;5.32;1.55;;;;;;;4.94;100.00;102071.00;5565496;25;20301;-79
2024/04/18 06:31:08;;;;;;;6.40;1.75;;;;;;;4.92;100.00;102068.41;5564463;25;20341;-79
2024/04/18 06:33:33;;;;;;;9.63;1.70;;;;;;;4.91;100.00;102069.38;5566281;25;19993;-78
2024/04/18 06:35:59;;;;;;;7.05;3.05;;;;;;;4.94;100.00;102071.88;5532453;25;19993;-79
2024/04/18 06:38:24;;;;;;;3.88;1.38;;;;;;;4.97;100.00;102070.00;5531976;25;19988;-80
2024/04/18 06:40:50;;;;;;;2.88;1.40;;;;;;;5.01;100.00;102080.31;5565135;25;20440;-79
2024/04/18 06:43:15;;;;;;;2.00;1.30;;;;;;;5.07;100.00;102076.56;5564879;25;19999;-78
2024/04/18 06:45:41;;;;;;;4.13;1.67;;;;;;;5.17;100.00;102084.91;5565436;25;19993;-78
2024/04/18 06:48:09;;;;;;;4.20;1.30;;;;;;;5.25;100.00;102078.28;5532081;25;20313;-81
2024/04/18 06:50:38;;;;;;;3.13;1.52;;;;;;;5.34;100.00;102084.06;5565216;25;20424;-80
2024/04/18 06:53:04;;;;;;;2.50;1.42;;;;;;;5.41;100.00;102088.13;5565170;25;19996;-82
2024/04/18 06:55:31;;;;;;;2.90;1.40;;;;;;;5.42;100.00;102089.81;5564887;25;19993;-82
2024/04/18 06:57:56;;;;;;;3.50;1.45;;;;;;;5.46;100.00;102083.47;5565012;25;20420;-82
2024/04/18 07:00:21;;;;;;;1.92;1.15;;;;;;;5.62;100.00;102081.78;5531747;25;20085;-81
2024/04/18 07:02:47;;;;;;;2.90;1.60;;;;;;;5.70;100.00;102078.75;5564529;25;19992;-79
2024/04/18 07:05:12;;;;;;;2.65;1.27;;;;;;;5.80;100.00;102081.78;5564550;25;19996;-78
2024/04/18 07:07:38;;;;;;;2.38;1.20;;;;;;;5.95;100.00;102091.56;5564251;25;20025;-80
2024/04/18 07:10:04;;;;;;;2.95;1.10;;;;;;;6.16;100.00;102087.00;5564711;25;20322;-80
2024/04/18 07:12:29;;;;;;;3.28;1.45;;;;;;;6.41;100.00;102079.59;5564338;25;20108;-82
2024/04/18 07:14:54;;;;;;;2.88;0.90;;;;;;;6.57;100.00;102088.41;5564304;25;20061;-83
2024/04/18 07:17:20;;;;;;;2.72;1.08;;;;;;;6.76;100.00;102104.09;5531560;25;19997;-81
2024/04/18 07:19:45;;;;;;;3.50;0.85;;;;;;;6.70;100.00;102110.59;5531728;25;20406;-86
2024/04/18 07:22:10;;;;;;;1.13;0.73;;;;;;;6.43;100.00;102109.41;5565263;25;20000;-86
2024/04/18 07:24:36;;;;;;;1.02;0.85;;;;;;;6.10;100.00;102113.75;5532056;25;20006;-85
2024/04/18 07:27:02;;;;;;;4.40;1.02;;;;;;;5.96;100.00;102118.84;5564780;25;20020;-82
2024/04/18 07:29:27;;;;;;;3.00;1.17;;;;;;;5.91;100.00;102108.53;5564212;25;20405;-82
2024/04/18 07:31:53;;;;;;;1.80;0.80;;;;;;;6.05;100.00;102101.72;5564202;25;20008;-82
2024/04/18 07:34:18;;;;;;;4.53;0.90;;;;;;;6.11;100.00;102114.63;5565298;25;20024;-81
2024/04/18 07:36:47;;;;;;;1.52;0.80;;;;;;;6.20;100.00;102122.06;5564546;25;19997;-82
2024/04/18 07:39:12;;;;;;;1.98;0.90;;;;;;;6.35;100.00;102121.25;5564381;25;19993;-83
2024/04/18 07:41:38;;;;;;;5.03;1.33;;;;;;;6.51;100.00;102128.41;5564777;25;19996;-82
2024/04/18 07:44:03;;;;;;;3.42;0.90;;;;;;;6.59;100.00;102130.63;5564313;25;20069;-81
2024/04/18 07:46:32;;;;;;;2.42;1.00;;;;;;;6.67;100.00;102131.06;5565147;25;20001;-80
2024/04/18 07:48:57;;;;;;;2.40;1.08;;;;;;;6.71;100.00;102130.81;5564911;25;19998;-84
2024/04/18 07:51:23;;;;;;;6.55;0.90;;;;;;;6.69;100.00;102122.13;5564431;25;20003;-80
2024/04/18 07:53:48;;;;;;;2.38;0.90;;;;;;;6.75;100.00;102134.16;5565114;25;20413;-81
2024/04/18 07:56:14;;;;;;;4.55;1.20;;;;;;;6.70;100.00;102129.13;5564308;25;20421;-80
2024/04/18 07:58:39;;;;;;;3.45;0.90;;;;;;;6.83;100.00;102144.31;5564036;25;20064;-84
2024/04/18 08:01:05;;;;;;;3.40;1.00;;;;;;;7.05;100.00;102147.50;5563897;25;20004;-81
2024/04/18 08:03:30;;;;;;;3.78;0.90;;;;;;;7.38;100.00;102141.28;5563744;25;19992;-82
2024/04/18 08:05:56;;;;;;;2.92;0.70;;;;;;;7.71;100.00;102147.41;5564466;25;20012;-83
2024/04/18 08:08:21;;;;;;;5.20;1.25;;;;;;;8.21;100.00;102150.66;5564032;25;19997;-83
2024/04/18 08:10:47;;;;;;;3.30;1.50;;;;;;;8.90;100.00;102149.13;5563991;25;19996;-79
2024/04/18 08:13:12;;;;;;;1.67;1.10;;;;;;;9.80;100.00;102146.88;5531985;25;19993;-82
2024/04/18 08:15:40;;;;;;;3.28;1.30;;;;;;;10.52;100.00;102158.94;5563870;25;20006;-81
2024/04/18 08:18:06;;;;;;;3.67;1.00;;;;;;;10.97;100.00;102161.13;5563629;25;19997;-84
2024/04/18 08:20:32;;;;;;;2.88;1.00;;;;;;;11.05;100.00;102156.97;5562694;25;20003;-82
2024/04/18 08:22:58;;;;;;;1.48;0.80;;;;;;;10.62;100.00;102162.66;5563936;25;19992;-82
2024/04/18 08:25:24;;;;;;;1.48;0.90;;;;;;;10.22;100.00;102154.75;5563608;25;20005;-81
2024/04/18 08:27:50;;;;;;;5.38;0.88;;;;;;;10.02;100.00;102156.94;5563446;25;20004;-81
2024/04/18 08:30:16;;;;;;;5.15;0.82;;;;;;;10.06;100.00;102163.78;5530912;25;20007;-80
2024/04/18 08:32:41;;;;;;;1.42;0.90;;;;;;;9.88;100.00;102170.31;5563936;25;20004;-80
2024/04/18 08:35:06;;;;;;;2.17;1.00;;;;;;;9.68;100.00;102168.97;5563598;25;20013;-80
2024/04/18 08:37:32;;;;;;;3.13;0.98;;;;;;;9.49;100.00;102177.28;5563176;25;20028;-82
2024/04/18 08:39:58;;;;;;;7.15;1.90;;;;;;;9.58;100.00;102167.88;5563459;25;20064;-79
2024/04/18 08:42:23;;;;;;;3.92;1.30;;;;;;;9.54;100.00;102177.84;5563271;25;20033;-78
2024/04/18 08:44:55;;;;;;;10.02;1.45;;;;;;;9.34;100.00;102176.47;5530032;25;20421;-81
2024/04/18 08:47:22;;;;;;;4.60;0.98;;;;;;;9.26;100.00;102182.28;5563469;25;19993;-79
2024/04/18 08:49:49;;;;;;;6.35;0.98;;;;;;;9.34;100.00;102179.13;5564368;25;20004;-79
2024/04/18 08:52:15;;;;;;;4.40;0.90;;;;;;;9.61;100.00;102187.09;5563199;25;20012;-83
2024/04/18 08:54:41;;;;;;;3.15;1.00;;;;;;;9.67;100.00;102188.53;5563383;25;19997;-80
2024/04/18 08:57:09;;;;;;;1.38;0.70;;;;;;;9.59;100.00;102193.50;5563337;25;20429;-79
2024/04/18 08:59:34;;;;;;;5.03;1.10;;;;;;;10.29;100.00;102187.94;5562711;25;20001;-78
2024/04/18 09:02:00;;;;;;;5.28;1.10;;;;;;;12.07;100.00;102197.53;5530313;25;20118;-77
2024/04/18 09:04:26;;;;;;;6.10;0.90;;;;;;;13.64;100.00;102200.41;5563288;25;20007;-77
2024/04/18 09:06:51;;;;;;;1.45;0.80;;;;;;;14.21;100.00;102198.38;5530585;25;20492;-77
2024/04/18 09:09:18;;;;;;;4.82;1.00;;;;;;;13.09;100.00;102207.53;5563639;25;20302;-77
2024/04/18 09:11:47;;;;;;;4.65;0.90;;;;;;;11.86;100.00;102205.28;5529997;25;20000;-77
2024/04/18 09:14:12;;;;;;;4.47;1.02;;;;;;;11.77;100.00;102205.97;5563195;25;20387;-77
2024/04/18 09:16:38;;;;;;;3.97;1.05;;;;;;;12.62;100.00;102197.78;5562819;25;20397;-77
2024/04/18 09:19:04;;;;;;;1.88;0.75;;;;;;;14.86;100.00;102189.34;5562514;25;20064;-76
2024/04/18 09:21:29;;;;;;;5.07;0.70;;;;;;;16.65;100.00;102197.25;5562729;25;20414;-78
2024/04/18 09:23:57;;;;;;;4.07;0.88;;;;;;;15.27;100.00;102195.53;5562624;25;19989;-76
2024/04/18 09:26:26;;;;;;;4.13;1.05;;;;;;;13.73;100.00;102194.31;5563353;25;20029;-77
2024/04/18 09:28:51;;;;;;;5.43;1.10;;;;;;;13.67;100.00;102188.63;5563091;25;19993;-81
2024/04/18 09:31:19;;;;;;;5.25;1.00;;;;;;;13.63;100.00;102195.19;5564597;25;20314;-76
2024/04/18 09:33:49;;;;;;;2.40;0.77;;;;;;;12.67;100.00;102190.28;5565877;25;20001;-77
2024/04/18 09:36:16;;;;;;;8.77;1.77;;;;;;;13.67;100.00;102189.47;5566590;25;20004;-78
2024/04/18 09:38:45;;;;;;;4.38;1.00;;;;;;;14.78;100.00;102192.69;5565671;25;20064;-76
2024/04/18 09:41:23;;;;;;;3.75;0.95;;;;;;;14.86;100.00;102194.69;5566460;25;20000;-78
2024/04/18 09:44:15;;;;;;;1.98;0.77;;;;;;;16.13;100.00;102200.31;5566108;25;20086;-78
2024/04/18 09:46:42;;;;;;;3.42;0.80;;;;;;;17.43;100.00;102203.13;5566259;25;20390;-77
2024/04/18 09:49:09;;;;;;;4.85;1.17;;;;;;;16.78;100.00;102203.16;5565722;25;20067;-78
2024/04/18 09:51:35;;;;;;;4.43;1.02;;;;;;;14.98;100.00;102196.28;5565545;25;20475;-77
2024/04/18 09:54:01;;;;;;;2.60;1.00;;;;;;;14.33;100.00;102200.97;5565612;25;19997;-76
2024/04/18 09:56:28;;;;;;;4.00;0.85;;;;;;;15.30;100.00;102208.66;5565869;25;20003;-79
2024/04/18 09:58:55;;;;;;;1.38;0.50;;;;;;;16.67;100.00;102204.16;5566016;25;19992;-77
2024/04/18 10:01:21;;;;;;;2.75;0.93;;;;;;;17.35;100.00;102194.97;5565912;25;20003;-77
2024/04/18 10:03:46;;;;;;;3.47;1.00;;;;;;;18.24;100.00;102201.41;5565117;25;19999;-76
2024/04/18 10:06:15;;;;;;;5.18;1.23;;;;;;;18.46;100.00;102201.88;5565589;25;20325;-76
2024/04/18 10:08:47;;;;;;;2.33;0.65;;;;;;;18.97;100.00;102204.72;5565168;25;19996;-76
2024/04/18 10:11:13;;;;;;;3.72;0.90;;;;;;;17.96;100.00;102208.75;5566141;25;19997;-76
2024/04/18 10:13:42;;;;;;;2.67;0.80;;;;;;;15.60;100.00;102205.06;5565041;25;19993;-77
2024/04/18 10:16:12;;;;;;;2.35;0.65;;;;;;;14.33;100.00;102195.63;5565727;25;19996;-77
2024/04/18 10:18:38;;;;;;;6.20;1.00;;;;;;;13.06;100.00;102205.94;5565007;25;19997;-76
2024/04/18 10:21:25;;;;;;;7.88;1.05;;;;;;;11.82;100.00;102209.16;5531035;25;20004;-75
2024/04/18 10:23:52;;;;;;;3.90;0.90;;;;;;;11.13;100.00;102207.03;5534228;25;19989;-75
2024/04/18 10:26:19;;;;;;;3.90;1.00;;;;;;;11.18;100.00;102214.69;5565053;25;20004;-75
2024/04/18 10:28:45;;;;;;;1.70;0.80;;;;;;;13.09;100.00;102203.03;5565040;25;20444;-75
2024/04/18 10:31:11;;;;;;;6.88;1.10;;;;;;;15.04;100.00;102200.25;5565144;25;19997;-74
2024/04/18 10:33:38;;;;;;;2.30;0.70;;;;;;;16.48;100.00;102207.75;5565185;25;19997;-79
2024/04/18 10:36:08;;;;;;;1.70;0.60;;;;;;;17.89;100.00;102204.94;5565264;25;20037;-75
2024/04/18 10:38:33;;;;;;;3.25;0.47;;;;;;;18.52;100.00;102221.97;5565761;25;19993;-75
2024/04/18 10:41:00;;;;;;;3.80;0.90;;;;;;;18.95;100.00;102204.91;5564794;25;19992;-75
2024/04/18 10:43:27;;;;;;;0.70;0.50;;;;;;;18.95;100.00;102207.59;5531148;25;20063;-75
2024/04/18 10:45:53;;;;;;;2.58;0.90;;;;;;;18.78;100.00;102214.72;5564920;25;19993;-79
2024/04/18 10:48:19;;;;;;;1.27;0.57;;;;;;;17.99;100.00;102211.13;5532607;25;20003;-74
2024/04/18 10:50:47;;;;;;;2.28;0.40;;;;;;;17.43;100.00;102210.34;5564585;25;19992;-75
2024/04/18 10:53:12;;;;;;;3.88;0.70;;;;;;;16.54;100.00;102215.25;5564550;25;20126;-73
2024/04/18 10:55:38;;;;;;;2.08;0.60;;;;;;;16.82;100.00;102215.28;5564788;25;20000;-73
2024/04/18 10:58:04;;;;;;;1.42;0.40;;;;;;;17.34;100.00;102219.34;5564480;25;20007;-73
2024/04/18 11:00:31;;;;;;;3.15;0.57;;;;;;;18.11;100.00;102211.75;5564868;25;20127;-73
2024/04/18 11:02:57;;;;;;;2.50;0.68;;;;;;;18.96;100.00;102211.13;5564481;25;20008;-74
2024/04/18 11:05:22;;;;;;;3.05;0.63;;;;;;;18.94;100.00;102216.69;5564879;25;20413;-74
2024/04/18 11:07:50;;;;;;;0.70;0.60;;;;;;;17.39;100.00;102214.34;5564439;25;20441;-73
2024/04/18 11:10:15;;;;;;;1.83;0.75;;;;;;;16.29;100.00;102221.22;5564223;25;20000;-77
2024/04/18 11:12:41;;;;;;;1.88;0.50;;;;;;;16.40;100.00;102218.38;5564164;25;19997;-75
2024/04/18 11:15:07;;;;;;;2.63;0.90;;;;;;;17.07;100.00;102215.66;5564329;25;20011;-79
2024/04/18 11:17:36;;;;;;;1.92;0.50;;;;;;;16.64;100.00;102217.03;5531003;25;20004;-81
2024/04/18 11:20:01;;;;;;;3.47;0.98;;;;;;;17.19;100.00;102221.69;5564587;25;20000;-78